createdAt,value
2023-01-13T00:00:32.882Z,17.83
2023-01-13T00:02:59.302Z,19.48
2023-01-13T00:05:26.709Z,17.10
2023-01-13T00:07:53.075Z,19.85
2023-01-13T00:10:19.421Z,26.58
2023-01-13T00:12:45.812Z,20.98
2023-01-13T00:15:13.358Z,20.13
2023-01-13T00:17:39.735Z,19.00
2023-01-13T00:20:06.920Z,25.27
2023-01-13T00:22:34.863Z,20.67
2023-01-13T00:27:28.153Z,23.42
2023-01-13T00:29:54.532Z,21.77
2023-01-13T00:32:21.325Z,20.13
2023-01-13T00:34:47.628Z,15.77
2023-01-13T00:37:14.604Z,19.52
2023-01-13T00:39:41.398Z,17.38
2023-01-13T00:42:26.546Z,18.17
2023-01-13T00:44:52.895Z,20.83
2023-01-13T00:47:19.334Z,20.08
2023-01-13T00:49:45.683Z,16.35
2023-01-13T00:52:12.184Z,17.83
2023-01-13T00:54:38.527Z,15.60
2023-01-13T00:57:04.976Z,22.50
2023-01-13T00:59:31.277Z,21.63
2023-01-13T01:01:57.731Z,20.08
2023-01-13T01:04:24.213Z,17.90
2023-01-13T01:06:50.777Z,20.08
2023-01-13T01:09:17.505Z,25.35
2023-01-13T01:11:44.102Z,15.15
2023-01-13T01:14:11.674Z,20.00
2023-01-13T01:16:38.333Z,19.08
2023-01-13T01:19:05.139Z,24.13
2023-01-13T01:21:31.758Z,20.80
2023-01-13T01:23:59.605Z,21.38
2023-01-13T01:26:26.515Z,20.30
2023-01-13T01:28:52.922Z,18.13
2023-01-13T01:31:20.537Z,21.77
2023-01-13T01:33:47.667Z,21.75
2023-01-13T01:36:15.235Z,24.70
2023-01-13T01:38:41.703Z,20.63
2023-01-13T01:41:08.124Z,23.65
2023-01-13T01:44:00.426Z,24.90
2023-01-13T01:46:28.124Z,18.48
2023-01-13T01:48:57.007Z,20.17
2023-01-13T01:51:23.457Z,23.48
2023-01-13T01:53:50.537Z,20.45
2023-01-13T01:56:17.805Z,24.50
2023-01-13T01:58:47.063Z,20.80
2023-01-13T02:01:14.075Z,20.75
2023-01-13T02:03:41.972Z,18.77
2023-01-13T02:06:08.434Z,22.48
2023-01-13T02:08:35.520Z,24.45
2023-01-13T02:11:01.854Z,16.43
2023-01-13T02:13:28.221Z,21.35
2023-01-13T02:16:08.439Z,24.88
2023-01-13T02:18:37.706Z,23.52
2023-01-13T02:21:22.790Z,19.25
2023-01-13T02:24:21.495Z,22.95
2023-01-13T02:26:47.830Z,21.40
2023-01-13T02:29:42.428Z,25.08
2023-01-13T02:32:31.872Z,20.27
2023-01-13T02:35:12.436Z,21.50
2023-01-13T02:37:40.481Z,21.80
2023-01-13T02:42:52.524Z,20.88
2023-01-13T02:45:36.107Z,19.95
2023-01-13T02:48:03.344Z,24.50
2023-01-13T02:50:34.535Z,21.63
2023-01-13T02:53:03.848Z,15.70
2023-01-13T02:55:33.095Z,21.55
2023-01-13T02:58:01.086Z,17.70
2023-01-13T03:02:53.836Z,25.52
2023-01-13T03:05:20.280Z,21.92
2023-01-13T03:07:53.519Z,20.08
2023-01-13T03:10:24.985Z,19.27
2023-01-13T03:13:06.512Z,15.65
2023-01-13T03:15:40.425Z,19.50
2023-01-13T03:18:17.699Z,21.00
2023-01-13T03:20:49.382Z,21.40
2023-01-13T03:23:28.819Z,19.83
2023-01-13T03:26:08.520Z,15.50
2023-01-13T03:28:41.307Z,21.58
2023-01-13T03:31:11.841Z,23.83
2023-01-13T03:33:45.353Z,20.45
2023-01-13T03:36:12.772Z,18.45
2023-01-13T03:38:44.208Z,12.57
2023-01-13T03:41:13.374Z,16.35
2023-01-13T03:44:06.515Z,18.05
2023-01-13T03:46:37.460Z,18.95
2023-01-13T03:49:05.539Z,21.38
2023-01-13T03:51:33.736Z,23.38
2023-01-13T03:54:03.073Z,29.67
2023-01-13T03:56:58.782Z,28.95
2023-01-13T03:59:28.269Z,31.40
2023-01-13T04:01:59.733Z,30.20
2023-01-13T04:04:28.988Z,28.77
2023-01-13T04:06:55.316Z,17.67
2023-01-13T04:09:40.192Z,18.95
2023-01-13T04:12:07.413Z,20.75
2023-01-13T04:14:34.710Z,18.95
2023-01-13T04:17:01.065Z,21.15
2023-01-13T04:19:27.476Z,23.58
2023-01-13T04:21:53.881Z,28.30
2023-01-13T04:24:20.251Z,28.65
2023-01-13T04:26:46.622Z,27.60
2023-01-13T04:29:15.466Z,31.83
2023-01-13T04:31:42.793Z,29.13
2023-01-13T04:34:10.484Z,20.00
2023-01-13T04:36:37.121Z,23.35
2023-01-13T04:39:03.693Z,28.08
2023-01-13T04:41:50.131Z,34.17
2023-01-13T04:44:16.578Z,25.77
2023-01-13T04:46:42.941Z,33.33
2023-01-13T04:49:09.319Z,34.40
2023-01-13T04:51:35.676Z,25.92
2023-01-13T04:54:02.014Z,29.15
2023-01-13T04:56:28.348Z,32.97
2023-01-13T04:58:54.731Z,35.80
2023-01-13T05:01:21.500Z,33.53
2023-01-13T05:03:47.946Z,30.13
2023-01-13T05:06:14.292Z,29.23
2023-01-13T05:08:40.619Z,35.08
2023-01-13T05:11:26.972Z,29.02
2023-01-13T05:14:11.777Z,27.20
2023-01-13T05:16:56.779Z,22.00
2023-01-13T05:19:23.142Z,23.67
2023-01-13T05:22:08.373Z,23.20
2023-01-13T05:24:53.163Z,19.83
2023-01-13T05:27:19.514Z,19.75
2023-01-13T05:29:45.903Z,16.73
2023-01-13T05:32:12.345Z,20.52
2023-01-13T05:34:38.706Z,21.10
2023-01-13T05:37:07.695Z,17.63
2023-01-13T05:39:54.071Z,17.05
2023-01-13T05:42:39.185Z,22.50
2023-01-13T05:45:05.798Z,26.85
2023-01-13T05:47:32.462Z,25.38
2023-01-13T05:49:58.858Z,22.23
2023-01-13T05:52:25.294Z,27.38
2023-01-13T05:54:51.626Z,20.27
2023-01-13T05:57:17.970Z,27.45
2023-01-13T05:59:44.321Z,21.20
2023-01-13T06:02:10.644Z,23.40
2023-01-13T06:04:37.159Z,20.90
2023-01-13T06:07:03.552Z,20.15
2023-01-13T06:09:29.867Z,20.92
2023-01-13T06:11:56.237Z,20.45
2023-01-13T06:14:23.131Z,23.45
2023-01-13T06:16:49.497Z,19.17
2023-01-13T06:19:15.925Z,22.23
2023-01-13T06:21:44.853Z,21.73
2023-01-13T06:24:11.173Z,21.58
2023-01-13T06:26:39.097Z,21.23
2023-01-13T06:29:05.549Z,24.73
2023-01-13T06:31:33.920Z,18.67
2023-01-13T06:34:02.648Z,20.10
2023-01-13T06:36:35.733Z,22.00
2023-01-13T06:39:03.053Z,18.70
2023-01-13T06:41:49.330Z,17.10
2023-01-13T06:44:15.741Z,26.13
2023-01-13T06:46:42.164Z,20.35
2023-01-13T06:49:08.600Z,20.70
2023-01-13T06:51:35.050Z,17.02
2023-01-13T06:54:01.409Z,18.70
2023-01-13T06:56:27.753Z,19.42
2023-01-13T06:58:54.079Z,16.52
2023-01-13T07:01:20.506Z,23.58
2023-01-13T07:03:47.079Z,21.10
2023-01-13T07:06:13.481Z,20.38
2023-01-13T07:08:39.880Z,20.10
2023-01-13T07:11:07.000Z,24.45
2023-01-13T07:13:53.254Z,20.07
2023-01-13T07:16:19.646Z,19.48
2023-01-13T07:18:46.011Z,24.80
2023-01-13T07:21:18.849Z,20.05
2023-01-13T07:23:45.941Z,22.75
2023-01-13T07:26:13.058Z,17.35
2023-01-13T07:28:39.588Z,19.42
2023-01-13T07:31:06.588Z,18.75
2023-01-13T07:33:33.224Z,17.38
2023-01-13T07:36:04.608Z,17.77
2023-01-13T07:38:31.496Z,14.88
2023-01-13T07:40:57.946Z,25.42
2023-01-13T07:43:33.545Z,18.23
2023-01-13T07:46:00.927Z,15.80
2023-01-13T07:48:27.882Z,19.48
2023-01-13T07:50:54.679Z,19.00
2023-01-13T07:53:21.659Z,15.68
2023-01-13T07:55:48.543Z,13.00
2023-01-13T07:58:14.878Z,20.90
2023-01-13T08:00:41.352Z,23.65
2023-01-13T08:03:07.789Z,20.00
2023-01-13T08:05:37.317Z,22.77
2023-01-13T08:08:03.743Z,21.20
2023-01-13T08:10:30.140Z,22.35
2023-01-13T08:13:15.218Z,18.00
2023-01-13T08:15:41.597Z,20.35
2023-01-13T08:18:08.004Z,15.55
2023-01-13T08:20:34.692Z,18.20
2023-01-13T08:23:01.307Z,16.45
2023-01-13T08:25:28.742Z,20.98
2023-01-13T08:27:55.142Z,18.88
2023-01-13T08:30:21.551Z,15.07
2023-01-13T08:32:48.968Z,14.77
2023-01-13T08:35:16.532Z,19.70
2023-01-13T08:37:43.609Z,21.38
2023-01-13T08:40:10.573Z,17.93
2023-01-13T08:42:38.065Z,23.80
2023-01-13T08:45:05.169Z,18.25
2023-01-13T08:47:31.509Z,17.40
2023-01-13T08:49:57.843Z,22.55
2023-01-13T08:52:24.217Z,14.85
2023-01-13T08:54:50.578Z,22.52
2023-01-13T08:57:19.442Z,16.88
2023-01-13T08:59:46.275Z,16.13
2023-01-13T09:02:13.973Z,17.92
2023-01-13T09:04:40.604Z,18.50
2023-01-13T09:07:07.009Z,17.40
2023-01-13T09:09:33.383Z,14.60
2023-01-13T09:12:18.279Z,19.42
2023-01-13T09:14:44.772Z,18.90
2023-01-13T09:17:11.242Z,15.32
2023-01-13T09:19:37.705Z,17.38
2023-01-13T09:22:04.135Z,15.10
2023-01-13T09:24:30.862Z,17.33
2023-01-13T09:26:57.245Z,16.42
2023-01-13T09:29:23.609Z,15.95
2023-01-13T09:31:50.060Z,15.88
2023-01-13T09:34:36.410Z,13.82
2023-01-13T09:37:03.364Z,19.83
2023-01-13T09:39:29.753Z,14.43
2023-01-13T09:42:16.435Z,20.52
2023-01-13T09:44:45.576Z,20.20
2023-01-13T09:47:16.912Z,21.70
2023-01-13T09:49:43.483Z,19.70
2023-01-13T09:52:15.010Z,14.13
2023-01-13T09:54:59.774Z,16.13
2023-01-13T09:57:27.585Z,15.02
2023-01-13T10:02:33.797Z,16.17
2023-01-13T10:05:10.580Z,14.82
2023-01-13T10:07:38.376Z,14.80
2023-01-13T10:12:50.514Z,13.38
2023-01-13T10:15:17.975Z,15.77
2023-01-13T10:17:44.322Z,16.60
2023-01-13T10:20:10.702Z,14.93
2023-01-13T10:22:42.947Z,17.55
2023-01-13T10:25:32.023Z,16.80
2023-01-13T10:28:04.188Z,18.35
2023-01-13T10:30:35.340Z,14.07
2023-01-13T10:33:06.371Z,10.40
2023-01-13T10:35:48.884Z,12.25
2023-01-13T10:38:38.661Z,12.68
2023-01-13T10:41:24.821Z,11.23
2023-01-13T10:43:57.310Z,10.27
2023-01-13T10:46:23.721Z,10.38
2023-01-13T10:48:57.104Z,13.52
2023-01-13T10:51:29.547Z,12.52
2023-01-13T10:53:55.966Z,14.27
2023-01-13T10:56:23.942Z,9.93
2023-01-13T10:58:50.371Z,11.15
2023-01-13T11:01:21.759Z,10.02
2023-01-13T11:03:48.297Z,8.80
2023-01-13T11:06:21.891Z,8.10
2023-01-13T11:08:50.021Z,8.40
2023-01-13T11:11:27.245Z,8.32
2023-01-13T11:14:13.942Z,6.03
2023-01-13T11:16:52.746Z,5.53
2023-01-13T11:19:21.541Z,6.85
2023-01-13T11:21:51.011Z,9.45
2023-01-13T11:24:29.779Z,10.20
2023-01-13T11:27:01.894Z,7.75
2023-01-13T11:29:51.144Z,13.02
2023-01-13T11:32:21.762Z,12.32
2023-01-13T11:34:52.396Z,11.50
2023-01-13T11:37:24.770Z,10.70
2023-01-13T11:39:53.839Z,12.88
2023-01-13T11:42:24.474Z,12.80
2023-01-13T11:44:55.807Z,14.02
2023-01-13T11:47:24.268Z,13.65
2023-01-13T11:49:50.682Z,15.65
2023-01-13T11:52:21.483Z,15.27
2023-01-13T11:54:55.274Z,11.57
2023-01-13T11:57:24.732Z,14.25
2023-01-13T12:00:00.276Z,12.68
2023-01-13T12:02:45.380Z,13.02
2023-01-13T12:05:35.994Z,14.05
2023-01-13T12:08:23.501Z,14.15
2023-01-13T12:11:03.160Z,13.32
2023-01-13T12:13:36.159Z,11.45
2023-01-13T12:16:11.610Z,11.60
2023-01-13T12:18:46.908Z,9.80
2023-01-13T12:21:23.071Z,10.70
2023-01-13T12:24:01.835Z,12.23
2023-01-13T12:26:30.031Z,12.50
2023-01-13T12:28:57.991Z,12.13
2023-01-13T12:31:25.098Z,12.18
2023-01-13T12:33:57.358Z,13.48
2023-01-13T12:36:53.344Z,11.77
2023-01-13T12:39:40.350Z,16.98
2023-01-13T12:42:46.615Z,11.73
2023-01-13T12:45:12.944Z,13.95
2023-01-13T12:47:41.372Z,14.07
2023-01-13T12:50:26.028Z,10.57
2023-01-13T12:52:52.401Z,16.63
2023-01-13T12:55:22.862Z,13.25
2023-01-13T12:57:56.467Z,12.60
2023-01-13T13:00:23.028Z,13.55
2023-01-13T13:03:09.236Z,14.80
2023-01-13T13:05:41.641Z,15.27
2023-01-13T13:08:07.977Z,12.02
2023-01-13T13:10:38.984Z,10.18
2023-01-13T13:13:19.975Z,10.52
2023-01-13T13:15:47.305Z,11.27
2023-01-13T13:18:20.832Z,12.88
2023-01-13T13:20:56.142Z,8.85
2023-01-13T13:23:37.855Z,10.60
2023-01-13T13:26:04.681Z,11.70
2023-01-13T13:28:35.322Z,11.23
2023-01-13T13:31:24.117Z,12.93
2023-01-13T13:33:58.359Z,8.63
2023-01-13T13:36:43.049Z,12.23
2023-01-13T13:39:40.014Z,12.10
2023-01-13T13:42:44.740Z,12.55
2023-01-13T13:45:33.640Z,11.68
2023-01-13T13:48:01.013Z,12.57
2023-01-13T13:50:30.296Z,16.48
2023-01-13T13:53:08.191Z,16.17
2023-01-13T13:55:34.722Z,12.13
2023-01-13T13:58:01.702Z,14.43
2023-01-13T14:00:30.318Z,15.95
2023-01-13T14:02:58.738Z,16.15
2023-01-13T14:05:33.061Z,10.70
2023-01-13T14:07:59.485Z,14.27
2023-01-13T14:10:36.540Z,14.82
2023-01-13T14:13:13.331Z,14.98
2023-01-13T14:15:41.002Z,11.77
2023-01-13T14:20:34.612Z,15.68
2023-01-13T14:23:01.689Z,14.63
2023-01-13T14:25:33.420Z,17.80
2023-01-13T14:28:03.756Z,13.50
2023-01-13T14:30:30.162Z,13.98
2023-01-13T14:32:56.996Z,16.98
2023-01-13T14:35:23.438Z,15.60
2023-01-13T14:37:50.562Z,12.90
2023-01-13T14:40:36.179Z,14.77
2023-01-13T14:43:03.491Z,12.82
2023-01-13T14:45:33.030Z,15.52
2023-01-13T14:48:00.942Z,18.60
2023-01-13T14:50:31.548Z,14.05
2023-01-13T14:52:58.302Z,13.13
2023-01-13T14:55:36.408Z,12.73
2023-01-13T14:58:21.649Z,13.13
2023-01-13T15:00:48.718Z,16.67
2023-01-13T15:03:15.854Z,10.95
2023-01-13T15:05:49.951Z,13.80
2023-01-13T15:08:17.249Z,14.18
2023-01-13T15:10:48.494Z,12.35
2023-01-13T15:13:26.215Z,16.40
2023-01-13T15:15:54.641Z,15.65
2023-01-13T15:18:21.035Z,12.57
2023-01-13T15:20:47.529Z,18.00
2023-01-13T15:23:13.897Z,12.32
2023-01-13T15:25:42.036Z,14.85
2023-01-13T15:28:16.721Z,12.73
2023-01-13T15:30:43.239Z,16.77
2023-01-13T15:33:10.809Z,16.45
2023-01-13T15:35:37.472Z,16.23
2023-01-13T15:38:09.728Z,14.00
2023-01-13T15:40:36.037Z,13.45
2023-01-13T15:43:21.053Z,18.30
2023-01-13T15:46:05.919Z,17.33
2023-01-13T15:48:32.941Z,13.35
2023-01-13T15:51:00.242Z,15.57
2023-01-13T15:53:27.880Z,15.52
2023-01-13T15:55:55.683Z,13.77
2023-01-13T15:58:24.636Z,20.20
2023-01-13T16:00:51.079Z,21.20
2023-01-13T16:03:17.525Z,22.75
2023-01-13T16:05:44.375Z,25.92
2023-01-13T16:08:15.450Z,20.33
2023-01-13T16:10:42.306Z,17.60
2023-01-13T16:13:08.753Z,20.30
2023-01-13T16:15:35.217Z,20.02
2023-01-13T16:18:03.426Z,25.73
2023-01-13T16:20:29.863Z,20.40
2023-01-13T16:22:56.261Z,17.60
2023-01-13T16:25:23.922Z,21.88
2023-01-13T16:27:50.810Z,18.30
2023-01-13T16:30:23.169Z,22.08
2023-01-13T16:32:49.555Z,21.00
2023-01-13T16:35:16.134Z,25.58
2023-01-13T16:37:45.264Z,24.17
2023-01-13T16:40:17.823Z,18.55
2023-01-13T16:42:44.157Z,22.70
2023-01-13T16:45:10.712Z,24.80
2023-01-13T16:47:37.317Z,26.60
2023-01-13T16:50:03.922Z,27.58
2023-01-13T16:52:30.267Z,25.05
2023-01-13T16:54:56.613Z,20.60
2023-01-13T16:57:22.998Z,24.80
2023-01-13T16:59:49.451Z,27.25
2023-01-13T17:02:19.662Z,32.25
2023-01-13T17:04:47.162Z,23.92
2023-01-13T17:07:16.322Z,20.95
2023-01-13T17:09:42.667Z,24.90
2023-01-13T17:12:09.976Z,28.05
2023-01-13T17:14:36.315Z,26.38
2023-01-13T17:17:02.710Z,19.30
2023-01-13T17:19:29.041Z,26.10
2023-01-13T17:21:55.410Z,26.58
2023-01-13T17:24:21.868Z,25.00
2023-01-13T17:26:49.985Z,20.58
2023-01-13T17:29:17.534Z,24.75
2023-01-13T17:31:44.046Z,22.30
2023-01-13T17:34:11.182Z,23.13
2023-01-13T17:36:37.579Z,21.70
2023-01-13T17:39:03.996Z,25.40
2023-01-13T17:41:30.614Z,24.23
2023-01-13T17:43:56.966Z,20.85
2023-01-13T17:46:23.370Z,32.28
2023-01-13T17:48:50.945Z,24.73
2023-01-13T17:51:17.571Z,24.52
2023-01-13T17:53:45.491Z,17.85
2023-01-13T17:56:12.972Z,18.77
2023-01-13T17:58:40.154Z,20.20
2023-01-13T18:01:07.542Z,16.73
2023-01-13T18:03:33.954Z,21.00
2023-01-13T18:06:07.348Z,17.27
2023-01-13T18:08:33.675Z,17.95
2023-01-13T18:11:00.780Z,22.88
2023-01-13T18:13:28.084Z,20.23
2023-01-13T18:16:11.227Z,18.58
2023-01-13T18:18:38.495Z,15.63
2023-01-13T18:21:24.239Z,18.73
2023-01-13T18:24:09.130Z,17.45
2023-01-13T18:26:53.868Z,19.05
2023-01-13T18:29:20.435Z,17.02
2023-01-13T18:31:46.798Z,18.27
2023-01-13T18:34:13.133Z,20.30
2023-01-13T18:36:39.590Z,17.73
2023-01-13T18:39:05.965Z,24.95
2023-01-13T18:41:51.043Z,21.63
2023-01-13T18:44:17.416Z,23.08
2023-01-13T18:46:43.786Z,16.67
2023-01-13T18:49:10.148Z,21.35
2023-01-13T18:51:37.402Z,19.80
2023-01-13T18:54:03.803Z,20.70
2023-01-13T18:56:31.123Z,24.70
2023-01-13T18:58:57.763Z,20.85
2023-01-13T19:01:25.728Z,23.38
2023-01-13T19:06:18.486Z,19.70
2023-01-13T19:08:45.274Z,23.73
2023-01-13T19:11:11.705Z,21.05
2023-01-13T19:13:38.053Z,22.25
2023-01-13T19:16:07.970Z,29.33
2023-01-13T19:18:34.494Z,26.73
2023-01-13T19:21:02.019Z,40.53
2023-01-13T19:23:28.472Z,33.00
2023-01-13T19:25:54.894Z,47.40
2023-01-13T19:28:22.066Z,25.98
2023-01-13T19:30:50.655Z,17.87
2023-01-13T19:33:17.245Z,20.23
2023-01-13T19:35:43.644Z,21.60
2023-01-13T19:38:10.005Z,20.75
2023-01-13T19:40:36.344Z,19.40
2023-01-13T19:43:21.404Z,26.63
2023-01-13T19:45:50.983Z,26.15
2023-01-13T19:48:17.335Z,26.20
2023-01-13T19:50:43.710Z,27.05
2023-01-13T19:53:15.842Z,23.65
2023-01-13T19:55:47.680Z,22.40
2023-01-13T19:58:14.036Z,22.48
2023-01-13T20:00:47.049Z,23.38
2023-01-13T20:03:13.977Z,20.38
2023-01-13T20:05:40.380Z,19.65
2023-01-13T20:08:06.717Z,22.40
2023-01-13T20:10:33.132Z,24.42
2023-01-13T20:12:59.476Z,23.20
2023-01-13T20:15:25.832Z,21.42
2023-01-13T20:17:52.177Z,24.92
2023-01-13T20:20:20.400Z,22.27
2023-01-13T20:22:46.757Z,19.00
2023-01-13T20:25:16.773Z,20.00
2023-01-13T20:27:43.895Z,21.35
2023-01-13T20:30:13.342Z,18.60
2023-01-13T20:32:42.800Z,22.83
2023-01-13T20:35:09.744Z,21.48
2023-01-13T20:37:40.150Z,18.63
2023-01-13T20:40:07.423Z,20.77
2023-01-13T20:42:42.438Z,25.73
2023-01-13T20:45:09.107Z,14.15
2023-01-13T20:47:35.532Z,15.20
2023-01-13T20:50:01.896Z,19.63
2023-01-13T20:52:28.274Z,26.73
2023-01-13T20:54:54.692Z,22.27
2023-01-13T20:57:21.070Z,21.35
2023-01-13T20:59:47.482Z,16.52
2023-01-13T21:02:14.859Z,22.42
2023-01-13T21:04:41.377Z,22.58
2023-01-13T21:07:07.747Z,21.17
2023-01-13T21:09:34.126Z,23.42
2023-01-13T21:12:19.039Z,22.38
2023-01-13T21:15:03.891Z,19.33
2023-01-13T21:17:48.792Z,20.88
2023-01-13T21:20:15.365Z,24.90
2023-01-13T21:22:46.091Z,21.02
2023-01-13T21:25:12.939Z,25.38
2023-01-13T21:27:39.460Z,24.50
2023-01-13T21:30:06.315Z,22.17
2023-01-13T21:32:32.718Z,29.02
2023-01-13T21:34:59.169Z,20.83
2023-01-13T21:37:25.613Z,23.85
2023-01-13T21:39:52.160Z,21.92
2023-01-13T21:42:36.960Z,23.00
2023-01-13T21:45:22.370Z,19.60
2023-01-13T21:47:48.729Z,19.88
2023-01-13T21:50:16.801Z,22.67
2023-01-13T21:52:43.310Z,20.83
2023-01-13T21:55:28.410Z,19.38
2023-01-13T21:57:58.998Z,22.95
2023-01-13T22:00:26.821Z,20.10
2023-01-13T22:02:53.755Z,17.35
2023-01-13T22:05:21.379Z,22.85
2023-01-13T22:07:47.844Z,16.17
2023-01-13T22:10:15.754Z,19.60
2023-01-13T22:15:10.869Z,20.52
2023-01-13T22:17:37.238Z,21.00
2023-01-13T22:20:03.898Z,23.05
2023-01-13T22:22:36.437Z,23.35
2023-01-13T22:25:07.112Z,24.38
2023-01-13T22:27:39.203Z,19.80
2023-01-13T22:30:07.246Z,30.23
2023-01-13T22:32:35.206Z,20.70
2023-01-13T22:37:27.781Z,29.70
2023-01-13T22:39:54.111Z,22.63
2023-01-13T22:42:20.476Z,18.77
2023-01-13T22:44:46.891Z,18.58
2023-01-13T22:47:13.267Z,21.80
2023-01-13T22:49:39.636Z,23.05
2023-01-13T22:52:06.094Z,25.75
2023-01-13T22:54:32.471Z,20.08
2023-01-13T22:56:58.799Z,25.00
2023-01-13T22:59:25.262Z,24.27
2023-01-13T23:01:51.688Z,27.88
2023-01-13T23:04:18.169Z,31.63
2023-01-13T23:06:44.730Z,29.42
2023-01-13T23:09:11.169Z,27.98
2023-01-13T23:11:37.614Z,24.55
2023-01-13T23:14:05.276Z,34.20
2023-01-13T23:16:33.224Z,30.65
2023-01-13T23:21:27.390Z,26.40
2023-01-13T23:26:20.535Z,29.52
2023-01-13T23:28:47.182Z,31.15
2023-01-13T23:31:15.089Z,30.90
2023-01-13T23:36:09.335Z,26.15
2023-01-13T23:41:04.711Z,35.70
2023-01-13T23:43:31.018Z,33.30
2023-01-13T23:46:07.744Z,26.88
2023-01-13T23:48:34.429Z,39.72
2023-01-13T23:51:01.359Z,40.40
2023-01-13T23:53:33.259Z,34.05
2023-01-13T23:56:00.691Z,30.08
2023-01-13T23:58:27.708Z,34.78
